Hlavní strana
METAR-TAF:

METAR-TAF

Letiště :

Florencie, Itálie

zeměpisná šířka: 43-48N, zeměpisná délka: 011-12E, výška: 40 m

Aktuální stav počasí

Zpráva byla vytvořena před 13 minutami, v 01:20 UTC
Severoseverovýchodní vítr 2 kt
Teplota 4°C
Vlhkost vzduchu 87%
Tlak 1017 hPa
Viditelnost 10 km a více
Oblačno až skoro zataženo ve výšce 6000 ft

METAR: LIRQ 130120Z 03002KT 9999 BKN060 04/02 Q1017

Čas: 02:33 (01:33 UTC)

Předpověď počasí

Zpráva byla vytvořena před 2 hodinami a 33 minutami, v 23:00 UTC
Předpověď platná od 13 v 00 UTC do 13 v 24 UTC
vítr z různých směrů 5 kt
Viditelnost 10 km a více
Polojasno ve výšce 2000 ft
Zataženo ve výšce 5000 ft
Dočasný
od 13 v 00 UTC do 13 v 09 UTC
déšť, sníh
Změna
od 13 v 09 UTC do 13 v 11 UTC
Severoseverovýchodní vítr 10 kt

TAF: LIRQ 122300Z 1300/1324 VRB05KT 9999 SCT020 OVC050 TEMPO 1300/1309 RASN BECMG 1309/1311 02010KT

Stav a předpovědi počasí z více než 4 000 letišť (zprávy METAR a TAF).

Červené a žluté tečky na mapě představují dostupné meteorologické stanice.

Když kurzor umístíte na tečku, zobrazí se název stanice.

Pak kliknutím zobrazíte stav a předpověď počasí.

Chcete-li změnit mapu, kliknutím na zelené tlačítko se znaménkem +mapu přiblížíte, kliknutím na zelené tlačítko se znaménkem – mapu oddálíte a kliknutím na zelené šipky přejdete na sousední mapy.


METAR-TAF: